sensor_id;sensor_type;location;lat;lon;timestamp;pressure;altitude;pressure_sealevel;temperature;humidity
10852;BME280;5479;52.046;6.314;2023-01-27T00:01:04;102414.38;;;4.80;100.00
10852;BME280;5479;52.046;6.314;2023-01-27T00:03:33;102409.88;;;4.89;100.00
10852;BME280;5479;52.046;6.314;2023-01-27T00:06:02;102409.84;;;4.93;100.00
10852;BME280;5479;52.046;6.314;2023-01-27T00:08:30;102414.34;;;4.83;100.00
10852;BME280;5479;52.046;6.314;2023-01-27T00:10:58;102416.88;;;4.91;100.00
10852;BME280;5479;52.046;6.314;2023-01-27T00:13:44;102416.91;;;4.87;100.00
10852;BME280;5479;52.046;6.314;2023-01-27T00:16:12;102412.63;;;4.79;100.00
10852;BME280;5479;52.046;6.314;2023-01-27T00:18:41;102416.91;;;4.87;100.00
10852;BME280;5479;52.046;6.314;2023-01-27T00:21:09;102417.88;;;4.80;100.00
10852;BME280;5479;52.046;6.314;2023-01-27T00:23:55;102418.72;;;4.84;100.00
10852;BME280;5479;52.046;6.314;2023-01-27T00:26:41;102413.44;;;4.85;100.00
10852;BME280;5479;52.046;6.314;2023-01-27T00:29:08;102416.94;;;4.84;100.00
10852;BME280;5479;52.046;6.314;2023-01-27T00:31:36;102425.72;;;4.83;100.00
10852;BME280;5479;52.046;6.314;2023-01-27T00:34:23;102416.09;;;4.84;100.00
10852;BME280;5479;52.046;6.314;2023-01-27T00:36:51;102424.09;;;4.69;100.00
10852;BME280;5479;52.046;6.314;2023-01-27T00:39:19;102427.59;;;4.69;100.00
10852;BME280;5479;52.046;6.314;2023-01-27T00:41:46;102428.50;;;4.67;100.00
10852;BME280;5479;52.046;6.314;2023-01-27T00:44:15;102428.53;;;4.64;100.00
10852;BME280;5479;52.046;6.314;2023-01-27T00:46:42;102425.84;;;4.68;100.00
10852;BME280;5479;52.046;6.314;2023-01-27T00:49:10;102421.56;;;4.61;100.00
10852;BME280;5479;52.046;6.314;2023-01-27T00:51:41;102425.91;;;4.65;100.00
10852;BME280;5479;52.046;6.314;2023-01-27T00:54:09;102430.31;;;4.62;100.00
10852;BME280;5479;52.046;6.314;2023-01-27T00:56:37;102424.13;;;4.67;100.00
10852;BME280;5479;52.046;6.314;2023-01-27T00:59:05;102429.44;;;4.61;100.00
10852;BME280;5479;52.046;6.314;2023-01-27T01:01:33;102431.09;;;4.68;100.00
10852;BME280;5479;52.046;6.314;2023-01-27T01:04:01;102436.41;;;4.65;100.00
10852;BME280;5479;52.046;6.314;2023-01-27T01:06:30;102430.25;;;4.66;100.00
10852;BME280;5479;52.046;6.314;2023-01-27T01:08:59;102432.88;;;4.66;100.00
10852;BME280;5479;52.046;6.314;2023-01-27T01:11:27;102420.66;;;4.65;100.00
10852;BME280;5479;52.046;6.314;2023-01-27T01:13:55;102429.41;;;4.64;100.00
10852;BME280;5479;52.046;6.314;2023-01-27T01:16:23;102428.56;;;4.59;100.00
10852;BME280;5479;52.046;6.314;2023-01-27T01:18:52;102432.09;;;4.57;100.00
10852;BME280;5479;52.046;6.314;2023-01-27T01:21:20;102436.47;;;4.56;100.00
10852;BME280;5479;52.046;6.314;2023-01-27T01:23:48;102448.75;;;4.54;100.00
10852;BME280;5479;52.046;6.314;2023-01-27T01:26:17;102445.22;;;4.57;100.00
10852;BME280;5479;52.046;6.314;2023-01-27T01:28:45;102446.94;;;4.59;100.00
10852;BME280;5479;52.046;6.314;2023-01-27T01:31:15;102460.94;;;4.58;100.00
10852;BME280;5479;52.046;6.314;2023-01-27T01:33:43;102453.00;;;4.63;100.00
10852;BME280;5479;52.046;6.314;2023-01-27T01:36:12;102453.91;;;4.60;100.00
10852;BME280;5479;52.046;6.314;2023-01-27T01:38:40;102450.41;;;4.64;100.00
10852;BME280;5479;52.046;6.314;2023-01-27T01:41:11;102455.69;;;4.58;100.00
10852;BME280;5479;52.046;6.314;2023-01-27T01:43:41;102459.25;;;4.54;100.00
10852;BME280;5479;52.046;6.314;2023-01-27T01:46:09;102462.72;;;4.56;100.00
10852;BME280;5479;52.046;6.314;2023-01-27T01:48:40;102458.34;;;4.52;100.00
10852;BME280;5479;52.046;6.314;2023-01-27T01:51:12;102456.59;;;4.56;100.00
10852;BME280;5479;52.046;6.314;2023-01-27T01:53:46;102466.19;;;4.55;100.00
10852;BME280;5479;52.046;6.314;2023-01-27T01:56:18;102466.19;;;4.55;100.00
10852;BME280;5479;52.046;6.314;2023-01-27T01:58:49;102465.31;;;4.59;100.00
10852;BME280;5479;52.046;6.314;2023-01-27T02:01:17;102466.16;;;4.61;100.00
10852;BME280;5479;52.046;6.314;2023-01-27T02:03:50;102468.81;;;4.60;100.00
10852;BME280;5479;52.046;6.314;2023-01-27T02:06:20;102466.19;;;4.55;100.00
10852;BME280;5479;52.046;6.314;2023-01-27T02:08:49;102472.38;;;4.51;100.00
10852;BME280;5479;52.046;6.314;2023-01-27T02:11:17;102487.28;;;4.43;100.00
10852;BME280;5479;52.046;6.314;2023-01-27T02:13:45;102478.59;;;4.38;100.00
10852;BME280;5479;52.046;6.314;2023-01-27T02:16:15;102479.50;;;4.36;100.00
10852;BME280;5479;52.046;6.314;2023-01-27T02:18:43;102480.34;;;4.36;100.00
10852;BME280;5479;52.046;6.314;2023-01-27T02:21:11;102488.25;;;4.28;100.00
10852;BME280;5479;52.046;6.314;2023-01-27T02:23:47;102478.66;;;4.26;100.00
10852;BME280;5479;52.046;6.314;2023-01-27T02:26:20;102485.63;;;4.32;100.00
10852;BME280;5479;52.046;6.314;2023-01-27T02:28:53;102480.41;;;4.25;100.00
10852;BME280;5479;52.046;6.314;2023-01-27T02:31:22;102488.28;;;4.27;100.00
10852;BME280;5479;52.046;6.314;2023-01-27T02:33:52;102489.19;;;4.24;100.00
10852;BME280;5479;52.046;6.314;2023-01-27T02:36:23;102489.16;;;4.26;100.00
10852;BME280;5479;52.046;6.314;2023-01-27T02:38:53;102494.41;;;4.26;100.00
10852;BME280;5479;52.046;6.314;2023-01-27T02:41:27;102493.50;;;4.32;100.00
10852;BME280;5479;52.046;6.314;2023-01-27T02:43:58;102489.16;;;4.26;100.00
10852;BME280;5479;52.046;6.314;2023-01-27T02:46:26;102483.88;;;4.29;100.00
10852;BME280;5479;52.046;6.314;2023-01-27T02:48:55;102497.03;;;4.28;100.00
10852;BME280;5479;52.046;6.314;2023-01-27T02:51:23;102501.41;;;4.27;100.00
10852;BME280;5479;52.046;6.314;2023-01-27T02:53:51;102489.16;;;4.26;100.00
10852;BME280;5479;52.046;6.314;2023-01-27T02:56:19;102497.00;;;4.32;100.00
10852;BME280;5479;52.046;6.314;2023-01-27T02:58:48;102496.94;;;4.37;100.00
10852;BME280;5479;52.046;6.314;2023-01-27T03:01:16;102496.13;;;4.30;100.00
10852;BME280;5479;52.046;6.314;2023-01-27T03:03:44;102496.16;;;4.27;100.00
10852;BME280;5479;52.046;6.314;2023-01-27T03:06:13;102490.03;;;4.23;100.00
10852;BME280;5479;52.046;6.314;2023-01-27T03:08:42;102495.38;;;4.14;100.00
10852;BME280;5479;52.046;6.314;2023-01-27T03:11:10;102499.72;;;4.15;100.00
10852;BME280;5479;52.046;6.314;2023-01-27T03:13:39;102499.66;;;4.20;100.00
10852;BME280;5479;52.046;6.314;2023-01-27T03:16:10;102496.22;;;4.19;100.00
10852;BME280;5479;52.046;6.314;2023-01-27T03:18:55;102504.00;;;4.28;100.00
10852;BME280;5479;52.046;6.314;2023-01-27T03:21:23;102496.13;;;4.30;100.00
10852;BME280;5479;52.046;6.314;2023-01-27T03:23:52;102502.22;;;4.32;100.00
10852;BME280;5479;52.046;6.314;2023-01-27T03:26:20;102506.63;;;4.30;100.00
10852;BME280;5479;52.046;6.314;2023-01-27T03:28:47;102501.41;;;4.27;100.00
10852;BME280;5479;52.046;6.314;2023-01-27T03:31:37;102504.88;;;4.31;100.00
10852;BME280;5479;52.046;6.314;2023-01-27T03:34:05;102504.84;;;4.35;100.00
10852;BME280;5479;52.046;6.314;2023-01-27T03:36:31;102507.44;;;4.37;100.00
10852;BME280;5479;52.046;6.314;2023-01-27T03:39:17;102510.94;;;4.34;100.00
10852;BME280;5479;52.046;6.314;2023-01-27T03:42:02;102506.53;;;4.39;100.00
10852;BME280;5479;52.046;6.314;2023-01-27T03:44:48;102512.63;;;4.44;100.00
10852;BME280;5479;52.046;6.314;2023-01-27T03:47:34;102517.03;;;4.42;100.00
10852;BME280;5479;52.046;6.314;2023-01-27T03:50:04;102510.94;;;4.39;100.00
10852;BME280;5479;52.046;6.314;2023-01-27T03:52:36;102507.38;;;4.47;100.00
10852;BME280;5479;52.046;6.314;2023-01-27T03:55:06;102514.38;;;4.45;100.00
10852;BME280;5479;52.046;6.314;2023-01-27T03:57:35;102519.63;;;4.48;100.00
10852;BME280;5479;52.046;6.314;2023-01-27T04:00:04;102520.44;;;4.53;100.00
10852;BME280;5479;52.046;6.314;2023-01-27T04:02:32;102516.97;;;4.51;100.00
10852;BME280;5479;52.046;6.314;2023-01-27T04:05:19;102523.09;;;4.50;100.00
10852;BME280;5479;52.046;6.314;2023-01-27T04:08:04;102521.34;;;4.51;100.00
10852;BME280;5479;52.046;6.314;2023-01-27T04:10:32;102524.06;;;4.37;100.00
10852;BME280;5479;52.046;6.314;2023-01-27T04:13:00;102518.75;;;4.45;100.00
10852;BME280;5479;52.046;6.314;2023-01-27T04:15:27;102518.75;;;4.46;100.00
10852;BME280;5479;52.046;6.314;2023-01-27T04:17:55;102513.53;;;4.43;100.00
10852;BME280;5479;52.046;6.314;2023-01-27T04:20:25;102518.81;;;4.37;100.00
10852;BME280;5479;52.046;6.314;2023-01-27T04:22:53;102521.44;;;4.37;100.00
10852;BME280;5479;52.046;6.314;2023-01-27T04:25:23;102520.56;;;4.38;100.00
10852;BME280;5479;52.046;6.314;2023-01-27T04:27:51;102518.78;;;4.40;100.00
10852;BME280;5479;52.046;6.314;2023-01-27T04:30:19;102530.09;;;4.48;100.00
10852;BME280;5479;52.046;6.314;2023-01-27T04:32:47;102525.75;;;4.44;100.00
10852;BME280;5479;52.046;6.314;2023-01-27T04:35:15;102520.53;;;4.40;100.00
10852;BME280;5479;52.046;6.314;2023-01-27T04:37:45;102523.13;;;4.44;100.00
10852;BME280;5479;52.046;6.314;2023-01-27T04:40:13;102525.81;;;4.38;100.00
10852;BME280;5479;52.046;6.314;2023-01-27T04:42:41;102523.13;;;4.49;100.00
10852;BME280;5479;52.046;6.314;2023-01-27T04:45:09;102527.50;;;4.45;100.00
10852;BME280;5479;52.046;6.314;2023-01-27T04:47:37;102519.59;;;4.51;100.00
10852;BME280;5479;52.046;6.314;2023-01-27T04:50:05;102530.97;;;4.47;100.00
10852;BME280;5479;52.046;6.314;2023-01-27T04:52:33;102523.13;;;4.49;100.00
10852;BME280;5479;52.046;6.314;2023-01-27T04:55:03;102528.31;;;4.56;100.00
10852;BME280;5479;52.046;6.314;2023-01-27T04:57:30;102528.34;;;4.52;100.00
10852;BME280;5479;52.046;6.314;2023-01-27T04:59:59;102518.66;;;4.58;100.00
10852;BME280;5479;52.046;6.314;2023-01-27T05:02:27;102522.13;;;4.60;100.00
10852;BME280;5479;52.046;6.314;2023-01-27T05:04:54;102524.84;;;4.51;100.00
10852;BME280;5479;52.046;6.314;2023-01-27T05:07:23;102528.34;;;4.50;100.00
10852;BME280;5479;52.046;6.314;2023-01-27T05:09:51;102534.41;;;4.55;100.00
10852;BME280;5479;52.046;6.314;2023-01-27T05:12:20;102532.72;;;4.51;100.00
10852;BME280;5479;52.046;6.314;2023-01-27T05:14:48;102536.25;;;4.46;100.00
10852;BME280;5479;52.046;6.314;2023-01-27T05:17:16;102538.78;;;4.56;100.00
10852;BME280;5479;52.046;6.314;2023-01-27T05:19:44;102536.22;;;4.50;100.00
10852;BME280;5479;52.046;6.314;2023-01-27T05:22:12;102536.13;;;4.62;100.00
10852;BME280;5479;52.046;6.314;2023-01-27T05:24:40;102534.44;;;4.52;100.00
10852;BME280;5479;52.046;6.314;2023-01-27T05:27:08;102533.63;;;4.43;100.00
10852;BME280;5479;52.046;6.314;2023-01-27T05:29:37;102529.25;;;4.46;100.00
10852;BME280;5479;52.046;6.314;2023-01-27T05:32:05;102528.41;;;4.43;100.00
10852;BME280;5479;52.046;6.314;2023-01-27T05:34:33;102527.53;;;4.39;100.00
10852;BME280;5479;52.046;6.314;2023-01-27T05:37:01;102536.31;;;4.35;100.00
10852;BME280;5479;52.046;6.314;2023-01-27T05:39:29;102534.53;;;4.37;100.00
10852;BME280;5479;52.046;6.314;2023-01-27T05:41:57;102538.09;;;4.33;100.00
10852;BME280;5479;52.046;6.314;2023-01-27T05:44:27;102549.38;;;4.43;100.00
10852;BME280;5479;52.046;6.314;2023-01-27T05:46:56;102539.78;;;4.37;100.00
10852;BME280;5479;52.046;6.314;2023-01-27T05:49:24;102556.44;;;4.33;100.00
10852;BME280;5479;52.046;6.314;2023-01-27T05:51:52;102556.47;;;4.30;100.00
10852;BME280;5479;52.046;6.314;2023-01-27T05:54:20;102549.47;;;4.29;100.00
10852;BME280;5479;52.046;6.314;2023-01-27T05:56:48;102555.63;;;4.25;100.00
10852;BME280;5479;52.046;6.314;2023-01-27T05:59:16;102553.94;;;4.12;100.00
10852;BME280;5479;52.046;6.314;2023-01-27T06:01:44;102555.69;;;4.05;100.00
10852;BME280;5479;52.046;6.314;2023-01-27T06:04:13;102553.97;;;4.03;100.00
10852;BME280;5479;52.046;6.314;2023-01-27T06:06:41;102553.97;;;4.03;100.00
10852;BME280;5479;52.046;6.314;2023-01-27T06:09:09;102562.69;;;4.08;100.00
10852;BME280;5479;52.046;6.314;2023-01-27T06:11:37;102567.06;;;4.09;100.00
10852;BME280;5479;52.046;6.314;2023-01-27T06:14:05;102574.88;;;4.15;100.00
10852;BME280;5479;52.046;6.314;2023-01-27T06:16:33;102571.41;;;4.10;100.00
10852;BME280;5479;52.046;6.314;2023-01-27T06:19:01;102571.47;;;3.98;100.00
10852;BME280;5479;52.046;6.314;2023-01-27T06:21:30;102578.50;;;3.93;100.00
10852;BME280;5479;52.046;6.314;2023-01-27T06:23:58;102578.50;;;3.93;100.00
10852;BME280;5479;52.046;6.314;2023-01-27T06:26:26;102575.88;;;3.84;100.00
10852;BME280;5479;52.046;6.314;2023-01-27T06:28:55;102582.88;;;3.83;100.00
10852;BME280;5479;52.046;6.314;2023-01-27T06:31:23;102582.03;;;3.77;100.00
10852;BME280;5479;52.046;6.314;2023-01-27T06:33:52;102577.69;;;3.74;100.00
10852;BME280;5479;52.046;6.314;2023-01-27T06:36:21;102589.91;;;3.64;100.00
10852;BME280;5479;52.046;6.314;2023-01-27T06:38:50;102594.28;;;3.62;100.00
10852;BME280;5479;52.046;6.314;2023-01-27T06:41:18;102596.88;;;3.64;100.00
10852;BME280;5479;52.046;6.314;2023-01-27T06:43:46;102588.16;;;3.70;100.00
10852;BME280;5479;52.046;6.314;2023-01-27T06:46:14;102597.78;;;3.67;100.00
10852;BME280;5479;52.046;6.314;2023-01-27T06:48:42;102613.50;;;3.67;100.00
10852;BME280;5479;52.046;6.314;2023-01-27T06:51:10;102606.50;;;3.66;100.00
10852;BME280;5479;52.046;6.314;2023-01-27T06:53:38;102610.00;;;3.69;100.00
10852;BME280;5479;52.046;6.314;2023-01-27T06:56:07;102603.88;;;3.74;100.00
10852;BME280;5479;52.046;6.314;2023-01-27T06:58:35;102604.72;;;3.81;100.00
10852;BME280;5479;52.046;6.314;2023-01-27T07:01:04;102604.72;;;3.81;100.00
10852;BME280;5479;52.046;6.314;2023-01-27T07:03:32;102613.47;;;3.77;100.00
10852;BME280;5479;52.046;6.314;2023-01-27T07:06:00;102615.25;;;3.72;100.00
10852;BME280;5479;52.046;6.314;2023-01-27T07:08:28;102616.09;;;3.80;100.00
10852;BME280;5479;52.046;6.314;2023-01-27T07:11:01;102620.50;;;3.69;100.00
10852;BME280;5479;52.046;6.314;2023-01-27T07:13:30;102620.44;;;3.75;100.00
10852;BME280;5479;52.046;6.314;2023-01-27T07:15:58;102635.31;;;3.74;100.00
10852;BME280;5479;52.046;6.314;2023-01-27T07:18:26;102626.56;;;3.84;100.00
10852;BME280;5479;52.046;6.314;2023-01-27T07:20:54;102627.44;;;3.79;100.00
10852;BME280;5479;52.046;6.314;2023-01-27T07:23:22;102627.44;;;3.85;100.00
10852;BME280;5479;52.046;6.314;2023-01-27T07:25:50;102636.16;;;3.84;100.00
10852;BME280;5479;52.046;6.314;2023-01-27T07:28:18;102631.78;;;3.86;100.00
10852;BME280;5479;52.046;6.314;2023-01-27T07:30:47;102637.94;;;3.79;100.00
10852;BME280;5479;52.046;6.314;2023-01-27T07:33:15;102637.88;;;3.94;100.00
10852;BME280;5479;52.046;6.314;2023-01-27T07:35:43;102641.38;;;3.91;100.00
10852;BME280;5479;52.046;6.314;2023-01-27T07:38:11;102643.13;;;3.98;100.00
10852;BME280;5479;52.046;6.314;2023-01-27T07:40:39;102646.59;;;4.05;100.00
10852;BME280;5479;52.046;6.314;2023-01-27T07:43:09;102650.06;;;4.07;100.00
10852;BME280;5479;52.046;6.314;2023-01-27T07:45:37;102639.63;;;4.01;100.00
10852;BME280;5479;52.046;6.314;2023-01-27T07:48:07;102643.09;;;4.00;100.00
10852;BME280;5479;52.046;6.314;2023-01-27T07:50:35;102644.84;;;4.05;100.00
10852;BME280;5479;52.046;6.314;2023-01-27T07:53:04;102643.13;;;3.97;100.00
10852;BME280;5479;52.046;6.314;2023-01-27T07:55:32;102653.59;;;4.06;100.00
10852;BME280;5479;52.046;6.314;2023-01-27T07:58:00;102651.81;;;4.05;100.00
10852;BME280;5479;52.046;6.314;2023-01-27T08:00:29;102648.34;;;4.00;100.00
10852;BME280;5479;52.046;6.314;2023-01-27T08:02:59;102643.97;;;3.99;100.00
10852;BME280;5479;52.046;6.314;2023-01-27T08:05:32;102652.72;;;4.04;100.00
10852;BME280;5479;52.046;6.314;2023-01-27T08:08:00;102651.84;;;4.02;100.00
10852;BME280;5479;52.046;6.314;2023-01-27T08:10:30;102648.34;;;4.00;100.00
10852;BME280;5479;52.046;6.314;2023-01-27T08:12:58;102652.72;;;4.01;100.00
10852;BME280;5479;52.046;6.314;2023-01-27T08:15:26;102652.72;;;3.99;100.00
10852;BME280;5479;52.046;6.314;2023-01-27T08:17:56;102648.34;;;4.03;100.00
10852;BME280;5479;52.046;6.314;2023-01-27T08:20:26;102664.94;;;4.11;100.00
10852;BME280;5479;52.046;6.314;2023-01-27T08:22:55;102668.41;;;4.10;100.00
10852;BME280;5479;52.046;6.314;2023-01-27T08:25:24;102672.81;;;4.05;100.00
10852;BME280;5479;52.046;6.314;2023-01-27T08:27:53;102670.19;;;4.00;100.00
10852;BME280;5479;52.046;6.314;2023-01-27T08:30:22;102678.06;;;4.06;100.00
10852;BME280;5479;52.046;6.314;2023-01-27T08:32:50;102685.06;;;4.03;100.00
10852;BME280;5479;52.046;6.314;2023-01-27T08:35:18;102678.94;;;4.04;100.00
10852;BME280;5479;52.046;6.314;2023-01-27T08:37:47;102684.19;;;3.99;100.00
10852;BME280;5479;52.046;6.314;2023-01-27T08:40:17;102683.28;;;4.02;100.00
10852;BME280;5479;52.046;6.314;2023-01-27T08:42:45;102683.28;;;4.08;100.00
10852;BME280;5479;52.046;6.314;2023-01-27T08:45:13;102685.94;;;3.94;100.00
10852;BME280;5479;52.046;6.314;2023-01-27T08:47:41;102685.88;;;4.09;100.00
10852;BME280;5479;52.046;6.314;2023-01-27T08:50:09;102683.28;;;4.14;100.00
10852;BME280;5479;52.046;6.314;2023-01-27T08:52:37;102689.38;;;4.19;100.00
10852;BME280;5479;52.046;6.314;2023-01-27T08:55:06;102692.00;;;4.13;100.00
10852;BME280;5479;52.046;6.314;2023-01-27T08:57:35;102697.25;;;4.19;100.00
10852;BME280;5479;52.046;6.314;2023-01-27T09:00:05;102700.72;;;4.24;100.00
10852;BME280;5479;52.046;6.314;2023-01-27T09:02:34;102692.00;;;4.22;100.00
10852;BME280;5479;52.046;6.314;2023-01-27T09:05:03;102704.22;;;4.20;100.00
10852;BME280;5479;52.046;6.314;2023-01-27T09:07:31;102709.50;;;4.14;100.00
10852;BME280;5479;52.046;6.314;2023-01-27T09:09:59;102707.72;;;4.19;100.00
10852;BME280;5479;52.046;6.314;2023-01-27T09:12:28;102712.97;;;4.19;100.00
10852;BME280;5479;52.046;6.314;2023-01-27T09:14:57;102711.19;;;4.27;100.00
10852;BME280;5479;52.046;6.314;2023-01-27T09:17:25;102712.06;;;4.31;100.00
10852;BME280;5479;52.046;6.314;2023-01-27T09:19:53;102719.06;;;4.32;100.00
10852;BME280;5479;52.046;6.314;2023-01-27T09:22:21;102720.81;;;4.30;100.00
10852;BME280;5479;52.046;6.314;2023-01-27T09:24:49;102724.28;;;4.38;100.00
10852;BME280;5479;52.046;6.314;2023-01-27T09:27:17;102723.41;;;4.43;100.00
10852;BME280;5479;52.046;6.314;2023-01-27T09:29:45;102725.19;;;4.26;100.00
10852;BME280;5479;52.046;6.314;2023-01-27T09:32:14;102735.66;;;4.38;100.00
10852;BME280;5479;52.046;6.314;2023-01-27T09:34:43;102737.34;;;4.51;100.00
10852;BME280;5479;52.046;6.314;2023-01-27T09:37:12;102740.03;;;4.41;100.00
10852;BME280;5479;52.046;6.314;2023-01-27T09:39:42;102744.38;;;4.37;100.00
10852;BME280;5479;52.046;6.314;2023-01-27T09:42:39;102747.88;;;4.45;100.00
10852;BME280;5479;52.046;6.314;2023-01-27T09:45:34;102737.44;;;4.33;100.00
10852;BME280;5479;52.046;6.314;2023-01-27T09:48:22;102735.59;;;4.56;100.00
10852;BME280;5479;52.046;6.314;2023-01-27T09:51:01;102729.44;;;4.62;100.00
10852;BME280;5479;52.046;6.314;2023-01-27T09:53:59;102728.59;;;4.52;100.00
10852;BME280;5479;52.046;6.314;2023-01-27T09:56:41;102735.59;;;4.53;100.00
10852;BME280;5479;52.046;6.314;2023-01-27T09:59:26;102735.56;;;4.59;100.00
10852;BME280;5479;52.046;6.314;2023-01-27T10:02:07;102742.56;;;4.60;100.00
10852;BME280;5479;52.046;6.314;2023-01-27T10:04:57;102736.44;;;4.64;100.00
10852;BME280;5479;52.046;6.314;2023-01-27T10:07:46;102740.81;;;4.65;100.00
10852;BME280;5479;52.046;6.314;2023-01-27T10:10:27;102740.81;;;4.59;100.00
10852;BME280;5479;52.046;6.314;2023-01-27T10:13:09;102737.25;;;4.78;100.00
10852;BME280;5479;52.046;6.314;2023-01-27T10:15:48;102731.03;;;4.96;100.00
10852;BME280;5479;52.046;6.314;2023-01-27T10:18:33;102730.22;;;4.83;100.00
10852;BME280;5479;52.046;6.314;2023-01-27T10:21:14;102735.38;;;4.99;100.00
10852;BME280;5479;52.046;6.314;2023-01-27T10:23:55;102730.13;;;4.96;100.00
10852;BME280;5479;52.046;6.314;2023-01-27T10:26:30;102725.72;;;5.01;100.00
10852;BME280;5479;52.046;6.314;2023-01-27T10:29:07;102731.94;;;4.92;100.00
10852;BME280;5479;52.046;6.314;2023-01-27T10:31:36;102725.81;;;4.88;100.00
10852;BME280;5479;52.046;6.314;2023-01-27T10:34:11;102718.78;;;4.97;100.00
10852;BME280;5479;52.046;6.314;2023-01-27T10:36:46;102726.63;;;5.03;100.00
10852;BME280;5479;52.046;6.314;2023-01-27T10:39:23;102727.34;;;5.23;100.00
10852;BME280;5479;52.046;6.314;2023-01-27T10:42:00;102724.81;;;5.11;100.00
10852;BME280;5479;52.046;6.314;2023-01-27T10:44:44;102724.75;;;5.17;100.00
10852;BME280;5479;52.046;6.314;2023-01-27T10:47:26;102723.03;;;5.13;100.00
10852;BME280;5479;52.046;6.314;2023-01-27T10:50:00;102725.72;;;5.04;100.00
10852;BME280;5479;52.046;6.314;2023-01-27T10:52:34;102719.56;;;5.11;100.00
10852;BME280;5479;52.046;6.314;2023-01-27T10:55:11;102718.69;;;5.10;100.00
10852;BME280;5479;52.046;6.314;2023-01-27T10:57:45;102724.69;;;5.29;100.00
10852;BME280;5479;52.046;6.314;2023-01-27T11:00:20;102719.41;;;5.32;100.00
10852;BME280;5479;52.046;6.314;2023-01-27T11:02:57;102719.41;;;5.32;100.00
10852;BME280;5479;52.046;6.314;2023-01-27T11:05:30;102715.03;;;5.31;100.00
10852;BME280;5479;52.046;6.314;2023-01-27T11:08:05;102719.41;;;5.33;100.00
10852;BME280;5479;52.046;6.314;2023-01-27T11:10:39;102722.94;;;5.29;100.00
10852;BME280;5479;52.046;6.314;2023-01-27T11:13:32;102721.25;;;5.19;100.00
10852;BME280;5479;52.046;6.314;2023-01-27T11:16:00;102717.78;;;5.16;100.00
10852;BME280;5479;52.046;6.314;2023-01-27T11:18:31;102723.88;;;5.18;100.00
10852;BME280;5479;52.046;6.314;2023-01-27T11:21:04;102717.78;;;5.14;100.00
10852;BME280;5479;52.046;6.314;2023-01-27T11:23:38;102712.50;;;5.19;100.00
10852;BME280;5479;52.046;6.314;2023-01-27T11:26:14;102708.97;;;5.23;100.00
10852;BME280;5479;52.046;6.314;2023-01-27T11:28:50;102714.06;;;5.44;100.00
10852;BME280;5479;52.046;6.314;2023-01-27T11:31:25;102712.28;;;5.51;100.00
10852;BME280;5479;52.046;6.314;2023-01-27T11:34:03;102713.03;;;5.63;100.00
10852;BME280;5479;52.046;6.314;2023-01-27T11:36:33;102705.06;;;5.72;100.00
10852;BME280;5479;52.046;6.314;2023-01-27T11:39:03;102700.63;;;5.77;100.00
10852;BME280;5479;52.046;6.314;2023-01-27T11:41:33;102704.38;;;5.51;100.00
10852;BME280;5479;52.046;6.314;2023-01-27T11:44:05;102699.16;;;5.44;100.00
10852;BME280;5479;52.046;6.314;2023-01-27T11:46:35;102700.97;;;5.36;100.00
10852;BME280;5479;52.046;6.314;2023-01-27T11:49:03;102697.47;;;5.39;100.00
10852;BME280;5479;52.046;6.314;2023-01-27T11:51:36;102693.09;;;5.39;100.00
10852;BME280;5479;52.046;6.314;2023-01-27T11:54:14;102692.28;;;5.28;100.00
10852;BME280;5479;52.046;6.314;2023-01-27T11:56:46;102694.81;;;5.42;100.00
10852;BME280;5479;52.046;6.314;2023-01-27T11:59:17;102690.44;;;5.41;100.00
10852;BME280;5479;52.046;6.314;2023-01-27T12:01:50;102690.38;;;5.47;100.00
10852;BME280;5479;52.046;6.314;2023-01-27T12:04:23;102682.44;;;5.56;100.00
10852;BME280;5479;52.046;6.314;2023-01-27T12:06:55;102684.09;;;5.66;100.00
10852;BME280;5479;52.046;6.314;2023-01-27T12:09:32;102684.06;;;5.69;100.00
10852;BME280;5479;52.046;6.314;2023-01-27T12:12:21;102677.00;;;5.74;100.00
10852;BME280;5479;52.046;6.314;2023-01-27T12:14:50;102684.88;;;5.73;100.00
10852;BME280;5479;52.046;6.314;2023-01-27T12:17:25;102675.34;;;5.64;100.00
10852;BME280;5479;52.046;6.314;2023-01-27T12:19:56;102680.63;;;5.64;100.00
10852;BME280;5479;52.046;6.314;2023-01-27T12:22:29;102670.06;;;5.66;100.00
10852;BME280;5479;52.046;6.314;2023-01-27T12:25:03;102677.06;;;5.68;100.00
10852;BME280;5479;52.046;6.314;2023-01-27T12:27:39;102668.34;;;5.63;100.00
10852;BME280;5479;52.046;6.314;2023-01-27T12:30:19;102662.88;;;5.87;100.00
10852;BME280;5479;52.046;6.314;2023-01-27T12:32:50;102661.06;;;5.92;100.00
10852;BME280;5479;52.046;6.314;2023-01-27T12:35:20;102667.28;;;5.88;100.00
10852;BME280;5479;52.046;6.314;2023-01-27T12:37:54;102661.19;;;5.80;100.00
10852;BME280;5479;52.046;6.314;2023-01-27T12:40:26;102659.31;;;5.91;100.00
10852;BME280;5479;52.046;6.314;2023-01-27T12:43:10;102661.41;;;5.56;100.00
10852;BME280;5479;52.046;6.314;2023-01-27T12:45:40;102664.97;;;5.49;100.00
10852;BME280;5479;52.046;6.314;2023-01-27T12:48:17;102663.31;;;5.39;100.00
10852;BME280;5479;52.046;6.314;2023-01-27T12:51:03;102657.94;;;5.51;100.00
10852;BME280;5479;52.046;6.314;2023-01-27T12:53:32;102670.22;;;5.51;100.00
10852;BME280;5479;52.046;6.314;2023-01-27T12:56:08;102667.69;;;5.38;100.00
10852;BME280;5479;52.046;6.314;2023-01-27T12:58:38;102672.16;;;5.26;100.00
10852;BME280;5479;52.046;6.314;2023-01-27T13:01:20;102670.41;;;5.25;100.00
10852;BME280;5479;52.046;6.314;2023-01-27T13:03:53;102662.53;;;5.29;100.00
10852;BME280;5479;52.046;6.314;2023-01-27T13:06:29;102673.03;;;5.29;100.00
10852;BME280;5479;52.046;6.314;2023-01-27T13:08:59;102678.28;;;5.29;100.00
10852;BME280;5479;52.046;6.314;2023-01-27T13:11:38;102669.53;;;5.24;100.00
10852;BME280;5479;52.046;6.314;2023-01-27T13:14:07;102672.19;;;5.23;100.00
10852;BME280;5479;52.046;6.314;2023-01-27T13:16:49;102668.72;;;5.18;100.00
10852;BME280;5479;52.046;6.314;2023-01-27T13:19:18;102685.31;;;5.23;100.00
10852;BME280;5479;52.046;6.314;2023-01-27T13:21:48;102675.75;;;5.19;100.00